sensor_id;sensor_type;location;lat;lon;timestamp;pressure;altitude;pressure_sealevel;temperature;humidity
11011;BME280;5558;42.702;23.178;2023-07-29T00:00:14;93575.41;;;15.95;100.00
11011;BME280;5558;42.702;23.178;2023-07-29T00:02:41;93575.16;;;16.19;100.00
11011;BME280;5558;42.702;23.178;2023-07-29T00:05:09;93576.31;;;16.26;100.00
11011;BME280;5558;42.702;23.178;2023-07-29T00:07:36;93578.34;;;16.43;100.00
11011;BME280;5558;42.702;23.178;2023-07-29T00:10:03;93572.63;;;16.49;100.00
11011;BME280;5558;42.702;23.178;2023-07-29T00:12:31;93578.19;;;16.26;100.00
11011;BME280;5558;42.702;23.178;2023-07-29T00:14:58;93582.16;;;16.28;100.00
11011;BME280;5558;42.702;23.178;2023-07-29T00:17:24;93567.91;;;16.33;100.00
11011;BME280;5558;42.702;23.178;2023-07-29T00:19:51;93571.00;;;16.26;100.00
11011;BME280;5558;42.702;23.178;2023-07-29T00:22:17;93573.50;;;16.09;100.00
11011;BME280;5558;42.702;23.178;2023-07-29T00:24:44;93574.75;;;16.25;100.00
11011;BME280;5558;42.702;23.178;2023-07-29T00:27:11;93571.66;;;16.32;100.00
11011;BME280;5558;42.702;23.178;2023-07-29T00:29:39;93566.72;;;16.39;100.00
11011;BME280;5558;42.702;23.178;2023-07-29T00:32:06;93564.91;;;16.34;100.00
11011;BME280;5558;42.702;23.178;2023-07-29T00:34:33;93568.09;;;16.36;100.00
11011;BME280;5558;42.702;23.178;2023-07-29T00:36:59;93563.50;;;16.15;100.00
11011;BME280;5558;42.702;23.178;2023-07-29T00:39:26;93565.25;;;16.19;100.00
11011;BME280;5558;42.702;23.178;2023-07-29T00:41:53;93562.72;;;16.14;100.00
11011;BME280;5558;42.702;23.178;2023-07-29T00:44:19;93562.19;;;16.26;100.00
11011;BME280;5558;42.702;23.178;2023-07-29T00:46:50;93561.28;;;15.81;100.00
11011;BME280;5558;42.702;23.178;2023-07-29T00:49:16;93558.81;;;15.84;100.00
11011;BME280;5558;42.702;23.178;2023-07-29T00:51:43;93557.53;;;15.82;100.00
11011;BME280;5558;42.702;23.178;2023-07-29T00:54:10;93565.72;;;15.99;100.00
11011;BME280;5558;42.702;23.178;2023-07-29T00:56:37;93555.75;;;15.91;100.00
11011;BME280;5558;42.702;23.178;2023-07-29T00:59:04;93556.25;;;15.93;100.00
11011;BME280;5558;42.702;23.178;2023-07-29T01:01:31;93555.53;;;16.01;100.00
11011;BME280;5558;42.702;23.178;2023-07-29T01:03:59;93556.25;;;15.79;100.00
11011;BME280;5558;42.702;23.178;2023-07-29T01:06:31;93556.53;;;15.78;100.00
11011;BME280;5558;42.702;23.178;2023-07-29T01:09:02;93556.75;;;15.68;100.00
11011;BME280;5558;42.702;23.178;2023-07-29T01:11:47;93558.34;;;15.55;100.00
11011;BME280;5558;42.702;23.178;2023-07-29T01:14:23;93549.44;;;15.73;100.00
11011;BME280;5558;42.702;23.178;2023-07-29T01:17:00;93549.03;;;15.66;100.00
11011;BME280;5558;42.702;23.178;2023-07-29T01:19:43;93552.28;;;15.36;100.00
11011;BME280;5558;42.702;23.178;2023-07-29T01:22:16;93548.91;;;15.31;100.00
11011;BME280;5558;42.702;23.178;2023-07-29T01:24:44;93547.31;;;15.16;100.00
11011;BME280;5558;42.702;23.178;2023-07-29T01:27:11;93548.03;;;15.35;100.00
11011;BME280;5558;42.702;23.178;2023-07-29T01:29:38;93548.75;;;15.54;100.00
11011;BME280;5558;42.702;23.178;2023-07-29T01:32:09;93547.16;;;15.53;100.00
11011;BME280;5558;42.702;23.178;2023-07-29T01:34:41;93562.69;;;15.65;100.00
11011;BME280;5558;42.702;23.178;2023-07-29T01:37:14;93563.28;;;15.62;100.00
11011;BME280;5558;42.702;23.178;2023-07-29T01:39:45;93554.97;;;15.63;100.00
11011;BME280;5558;42.702;23.178;2023-07-29T01:42:13;93555.88;;;15.59;100.00
11011;BME280;5558;42.702;23.178;2023-07-29T01:44:40;93554.38;;;15.66;100.00
11011;BME280;5558;42.702;23.178;2023-07-29T01:47:07;93560.41;;;15.72;100.00
11011;BME280;5558;42.702;23.178;2023-07-29T01:49:34;93556.16;;;15.71;100.00
11011;BME280;5558;42.702;23.178;2023-07-29T01:52:01;93557.84;;;15.53;100.00
11011;BME280;5558;42.702;23.178;2023-07-29T01:54:28;93557.84;;;15.40;100.00
11011;BME280;5558;42.702;23.178;2023-07-29T01:56:56;93548.81;;;15.22;100.00
11011;BME280;5558;42.702;23.178;2023-07-29T01:59:23;93548.50;;;15.10;100.00
11011;BME280;5558;42.702;23.178;2023-07-29T02:01:49;93542.38;;;15.10;100.00
11011;BME280;5558;42.702;23.178;2023-07-29T02:04:16;93549.59;;;15.23;100.00
11011;BME280;5558;42.702;23.178;2023-07-29T02:06:43;93546.13;;;15.09;100.00
11011;BME280;5558;42.702;23.178;2023-07-29T02:09:09;93544.13;;;15.01;100.00
11011;BME280;5558;42.702;23.178;2023-07-29T02:11:36;93559.06;;;15.02;100.00
11011;BME280;5558;42.702;23.178;2023-07-29T02:14:04;93550.19;;;15.06;100.00
11011;BME280;5558;42.702;23.178;2023-07-29T02:16:31;93552.75;;;15.11;100.00
11011;BME280;5558;42.702;23.178;2023-07-29T02:18:58;93557.56;;;14.96;100.00
11011;BME280;5558;42.702;23.178;2023-07-29T02:21:24;93555.91;;;14.68;100.00
11011;BME280;5558;42.702;23.178;2023-07-29T02:23:51;93557.91;;;14.76;100.00
11011;BME280;5558;42.702;23.178;2023-07-29T02:26:18;93553.47;;;14.71;100.00
11011;BME280;5558;42.702;23.178;2023-07-29T02:28:44;93550.16;;;14.93;100.00
11011;BME280;5558;42.702;23.178;2023-07-29T02:31:15;93546.63;;;15.11;100.00
11011;BME280;5558;42.702;23.178;2023-07-29T02:33:43;93559.34;;;15.14;100.00
11011;BME280;5558;42.702;23.178;2023-07-29T02:36:11;93552.75;;;15.11;100.00
11011;BME280;5558;42.702;23.178;2023-07-29T02:38:38;93550.09;;;15.25;100.00
11011;BME280;5558;42.702;23.178;2023-07-29T02:41:05;93551.56;;;15.17;100.00
11011;BME280;5558;42.702;23.178;2023-07-29T02:43:34;93553.38;;;15.22;100.00
11011;BME280;5558;42.702;23.178;2023-07-29T02:46:00;93559.56;;;15.31;100.00
11011;BME280;5558;42.702;23.178;2023-07-29T02:48:29;93561.47;;;15.30;100.00
11011;BME280;5558;42.702;23.178;2023-07-29T02:50:55;93540.44;;;15.15;100.00
11011;BME280;5558;42.702;23.178;2023-07-29T02:53:22;93552.06;;;15.19;100.00
11011;BME280;5558;42.702;23.178;2023-07-29T02:55:49;93566.81;;;15.30;100.00
11011;BME280;5558;42.702;23.178;2023-07-29T02:58:16;93562.25;;;15.31;100.00
11011;BME280;5558;42.702;23.178;2023-07-29T03:00:42;93570.53;;;15.29;100.00
11011;BME280;5558;42.702;23.178;2023-07-29T03:03:09;93568.16;;;15.14;100.00
11011;BME280;5558;42.702;23.178;2023-07-29T03:05:37;93575.16;;;15.24;100.00
11011;BME280;5558;42.702;23.178;2023-07-29T03:08:04;93574.81;;;15.30;100.00
11011;BME280;5558;42.702;23.178;2023-07-29T03:10:31;93576.66;;;15.30;100.00
11011;BME280;5558;42.702;23.178;2023-07-29T03:12:57;93576.06;;;15.33;100.00
11011;BME280;5558;42.702;23.178;2023-07-29T03:15:24;93565.09;;;15.21;100.00
11011;BME280;5558;42.702;23.178;2023-07-29T03:17:51;93577.16;;;15.18;100.00
11011;BME280;5558;42.702;23.178;2023-07-29T03:20:19;93573.22;;;14.84;100.00
11011;BME280;5558;42.702;23.178;2023-07-29T03:22:47;93578.19;;;15.04;100.00
11011;BME280;5558;42.702;23.178;2023-07-29T03:25:14;93581.16;;;15.02;100.00
11011;BME280;5558;42.702;23.178;2023-07-29T03:27:40;93578.78;;;15.01;100.00
11011;BME280;5558;42.702;23.178;2023-07-29T03:30:07;93577.16;;;15.18;100.00
11011;BME280;5558;42.702;23.178;2023-07-29T03:32:34;93578.28;;;15.85;100.00
11011;BME280;5558;42.702;23.178;2023-07-29T03:35:01;93583.94;;;16.90;100.00
11011;BME280;5558;42.702;23.178;2023-07-29T03:37:27;93577.56;;;18.09;100.00
11011;BME280;5558;42.702;23.178;2023-07-29T03:39:55;93578.69;;;19.27;88.13
11011;BME280;5558;42.702;23.178;2023-07-29T03:42:22;93585.34;;;20.43;77.73
11011;BME280;5558;42.702;23.178;2023-07-29T03:44:49;93582.69;;;21.49;67.26
11011;BME280;5558;42.702;23.178;2023-07-29T03:47:15;93588.13;;;22.58;61.24
11011;BME280;5558;42.702;23.178;2023-07-29T03:49:42;93587.75;;;23.66;56.03
11011;BME280;5558;42.702;23.178;2023-07-29T03:52:09;93607.41;;;24.72;50.35
11011;BME280;5558;42.702;23.178;2023-07-29T03:54:35;93604.06;;;25.74;47.07
11011;BME280;5558;42.702;23.178;2023-07-29T03:57:04;93599.28;;;26.81;43.44
11011;BME280;5558;42.702;23.178;2023-07-29T03:59:31;93596.00;;;27.57;41.30
11011;BME280;5558;42.702;23.178;2023-07-29T04:01:58;93604.38;;;28.51;38.99
11011;BME280;5558;42.702;23.178;2023-07-29T04:04:24;93608.22;;;29.05;37.43
11011;BME280;5558;42.702;23.178;2023-07-29T04:06:51;93611.31;;;29.78;35.83
11011;BME280;5558;42.702;23.178;2023-07-29T04:09:18;93606.00;;;30.35;34.24
11011;BME280;5558;42.702;23.178;2023-07-29T04:11:45;93608.75;;;30.80;33.63
11011;BME280;5558;42.702;23.178;2023-07-29T04:14:13;93605.50;;;31.49;32.01
11011;BME280;5558;42.702;23.178;2023-07-29T04:16:40;93611.06;;;32.14;31.16
11011;BME280;5558;42.702;23.178;2023-07-29T04:19:06;93606.91;;;32.57;29.92
11011;BME280;5558;42.702;23.178;2023-07-29T04:21:33;93615.44;;;33.10;29.08
11011;BME280;5558;42.702;23.178;2023-07-29T04:24:00;93623.50;;;33.99;27.71
11011;BME280;5558;42.702;23.178;2023-07-29T04:26:26;93627.31;;;34.65;26.91
11011;BME280;5558;42.702;23.178;2023-07-29T04:28:53;93625.25;;;34.96;26.23
11011;BME280;5558;42.702;23.178;2023-07-29T04:31:21;93623.63;;;35.44;26.12
11011;BME280;5558;42.702;23.178;2023-07-29T04:33:48;93619.78;;;36.01;26.00
11011;BME280;5558;42.702;23.178;2023-07-29T04:36:14;93616.63;;;36.18;25.29
11011;BME280;5558;42.702;23.178;2023-07-29T04:38:41;93622.28;;;36.47;24.88
11011;BME280;5558;42.702;23.178;2023-07-29T04:41:08;93625.47;;;36.81;24.01
11011;BME280;5558;42.702;23.178;2023-07-29T04:43:34;93628.03;;;37.36;23.04
11011;BME280;5558;42.702;23.178;2023-07-29T04:46:01;93633.13;;;37.82;22.87
11011;BME280;5558;42.702;23.178;2023-07-29T04:48:29;93633.78;;;38.28;22.29
11011;BME280;5558;42.702;23.178;2023-07-29T04:50:56;93637.44;;;38.25;22.03
11011;BME280;5558;42.702;23.178;2023-07-29T04:53:23;93636.47;;;37.90;22.69
11011;BME280;5558;42.702;23.178;2023-07-29T04:55:50;93640.22;;;38.25;22.37
11011;BME280;5558;42.702;23.178;2023-07-29T04:58:16;93641.47;;;38.99;21.46
11011;BME280;5558;42.702;23.178;2023-07-29T05:00:43;93643.59;;;38.82;21.66
11011;BME280;5558;42.702;23.178;2023-07-29T05:03:10;93644.84;;;39.53;21.74
11011;BME280;5558;42.702;23.178;2023-07-29T05:05:38;93645.53;;;39.79;20.68
11011;BME280;5558;42.702;23.178;2023-07-29T05:08:04;93651.44;;;39.68;20.87
11011;BME280;5558;42.702;23.178;2023-07-29T05:10:31;93650.28;;;39.91;21.07
11011;BME280;5558;42.702;23.178;2023-07-29T05:12:58;93650.59;;;40.36;20.14
11011;BME280;5558;42.702;23.178;2023-07-29T05:15:25;93656.28;;;40.63;19.99
11011;BME280;5558;42.702;23.178;2023-07-29T05:17:51;93662.34;;;41.01;19.77
11011;BME280;5558;42.702;23.178;2023-07-29T05:20:18;93657.03;;;41.16;19.72
11011;BME280;5558;42.702;23.178;2023-07-29T05:22:46;93659.13;;;41.03;19.46
11011;BME280;5558;42.702;23.178;2023-07-29T05:25:13;93658.25;;;40.54;19.95
11011;BME280;5558;42.702;23.178;2023-07-29T05:27:40;93664.03;;;40.68;20.25
11011;BME280;5558;42.702;23.178;2023-07-29T05:30:08;93661.97;;;40.81;19.80
11011;BME280;5558;42.702;23.178;2023-07-29T05:32:34;93659.41;;;40.96;19.73
11011;BME280;5558;42.702;23.178;2023-07-29T05:35:01;93664.50;;;41.46;19.53
11011;BME280;5558;42.702;23.178;2023-07-29T05:37:28;93660.69;;;41.13;19.68
11011;BME280;5558;42.702;23.178;2023-07-29T05:39:56;93660.31;;;41.42;19.45
11011;BME280;5558;42.702;23.178;2023-07-29T05:42:23;93643.66;;;41.42;19.36
11011;BME280;5558;42.702;23.178;2023-07-29T05:44:49;93668.28;;;42.24;18.68
11011;BME280;5558;42.702;23.178;2023-07-29T05:47:16;93663.19;;;42.05;18.62
11011;BME280;5558;42.702;23.178;2023-07-29T05:49:43;93670.56;;;42.53;18.04
11011;BME280;5558;42.702;23.178;2023-07-29T05:52:10;93658.78;;;42.58;18.70
11011;BME280;5558;42.702;23.178;2023-07-29T05:54:36;93664.09;;;42.47;18.36
11011;BME280;5558;42.702;23.178;2023-07-29T05:57:05;93671.19;;;43.08;17.69
11011;BME280;5558;42.702;23.178;2023-07-29T05:59:32;93660.06;;;42.48;18.21
11011;BME280;5558;42.702;23.178;2023-07-29T06:01:59;93675.44;;;42.85;17.90
11011;BME280;5558;42.702;23.178;2023-07-29T06:04:25;93672.25;;;43.10;18.07
11011;BME280;5558;42.702;23.178;2023-07-29T06:06:52;93672.09;;;43.47;17.10
11011;BME280;5558;42.702;23.178;2023-07-29T06:09:20;93665.53;;;42.06;18.69
11011;BME280;5558;42.702;23.178;2023-07-29T06:11:47;93664.84;;;42.57;18.09
11011;BME280;5558;42.702;23.178;2023-07-29T06:14:15;93660.69;;;42.34;18.59
11011;BME280;5558;42.702;23.178;2023-07-29T06:16:42;93659.75;;;42.46;18.25
11011;BME280;5558;42.702;23.178;2023-07-29T06:19:09;93652.25;;;42.70;17.85
11011;BME280;5558;42.702;23.178;2023-07-29T06:21:35;93658.28;;;42.78;17.90
11011;BME280;5558;42.702;23.178;2023-07-29T06:24:02;93661.00;;;42.36;19.01
11011;BME280;5558;42.702;23.178;2023-07-29T06:26:29;93656.81;;;42.31;18.50
11011;BME280;5558;42.702;23.178;2023-07-29T06:28:56;93650.78;;;42.24;18.65
11011;BME280;5558;42.702;23.178;2023-07-29T06:31:24;93647.25;;;42.14;18.38
11011;BME280;5558;42.702;23.178;2023-07-29T06:33:51;93639.31;;;41.32;19.53
11011;BME280;5558;42.702;23.178;2023-07-29T06:36:17;93641.50;;;40.14;19.74
11011;BME280;5558;42.702;23.178;2023-07-29T06:38:44;93637.13;;;40.56;20.11
11011;BME280;5558;42.702;23.178;2023-07-29T06:41:12;93638.19;;;40.50;20.30
11011;BME280;5558;42.702;23.178;2023-07-29T06:43:39;93634.16;;;40.20;20.75
11011;BME280;5558;42.702;23.178;2023-07-29T06:46:05;93640.22;;;40.06;20.75
11011;BME280;5558;42.702;23.178;2023-07-29T06:48:33;93644.44;;;38.29;21.81
11011;BME280;5558;42.702;23.178;2023-07-29T06:51:00;93645.63;;;39.07;21.66
11011;BME280;5558;42.702;23.178;2023-07-29T06:53:27;93641.16;;;39.10;21.85
11011;BME280;5558;42.702;23.178;2023-07-29T06:55:54;93644.72;;;39.10;21.52
11011;BME280;5558;42.702;23.178;2023-07-29T06:58:21;93648.47;;;39.16;21.34
11011;BME280;5558;42.702;23.178;2023-07-29T07:00:47;93644.38;;;38.70;21.71
11011;BME280;5558;42.702;23.178;2023-07-29T07:03:14;93644.66;;;38.35;22.73
11011;BME280;5558;42.702;23.178;2023-07-29T07:05:42;93635.56;;;37.04;24.24
11011;BME280;5558;42.702;23.178;2023-07-29T07:08:09;93631.19;;;36.19;24.32
11011;BME280;5558;42.702;23.178;2023-07-29T07:10:35;93624.03;;;36.21;24.69
11011;BME280;5558;42.702;23.178;2023-07-29T07:13:02;93624.91;;;35.59;25.27
11011;BME280;5558;42.702;23.178;2023-07-29T07:15:29;93622.81;;;35.87;25.56
11011;BME280;5558;42.702;23.178;2023-07-29T07:17:55;93621.28;;;35.63;25.57
11011;BME280;5558;42.702;23.178;2023-07-29T07:20:22;93621.47;;;35.95;25.02
11011;BME280;5558;42.702;23.178;2023-07-29T07:22:50;93612.91;;;35.50;26.11
11011;BME280;5558;42.702;23.178;2023-07-29T07:25:17;93621.34;;;34.43;26.92
11011;BME280;5558;42.702;23.178;2023-07-29T07:27:44;93620.47;;;34.20;27.21
11011;BME280;5558;42.702;23.178;2023-07-29T07:30:11;93615.56;;;33.74;28.00
11011;BME280;5558;42.702;23.178;2023-07-29T07:32:38;93611.22;;;33.02;28.38
11011;BME280;5558;42.702;23.178;2023-07-29T07:35:05;93608.81;;;32.60;29.04
11011;BME280;5558;42.702;23.178;2023-07-29T07:37:31;93609.06;;;32.25;29.93
11011;BME280;5558;42.702;23.178;2023-07-29T07:39:59;93602.44;;;32.19;29.97
11011;BME280;5558;42.702;23.178;2023-07-29T07:42:26;93605.16;;;31.33;32.01
11011;BME280;5558;42.702;23.178;2023-07-29T07:44:53;93604.88;;;30.81;33.71
11011;BME280;5558;42.702;23.178;2023-07-29T07:47:19;93614.88;;;29.86;34.48
11011;BME280;5558;42.702;23.178;2023-07-29T07:49:46;93603.19;;;29.96;34.67
11011;BME280;5558;42.702;23.178;2023-07-29T07:52:14;93611.34;;;29.85;34.67
11011;BME280;5558;42.702;23.178;2023-07-29T07:54:41;93606.34;;;30.05;35.58
11011;BME280;5558;42.702;23.178;2023-07-29T07:57:09;93609.38;;;29.75;35.94
11011;BME280;5558;42.702;23.178;2023-07-29T07:59:35;93604.13;;;29.32;36.79
11011;BME280;5558;42.702;23.178;2023-07-29T08:02:02;93574.44;;;29.20;36.35
11011;BME280;5558;42.702;23.178;2023-07-29T08:04:29;93606.16;;;29.56;36.13
11011;BME280;5558;42.702;23.178;2023-07-29T08:06:56;93605.69;;;29.40;36.63
11011;BME280;5558;42.702;23.178;2023-07-29T08:09:23;93611.22;;;29.54;35.20
11011;BME280;5558;42.702;23.178;2023-07-29T08:11:49;93608.88;;;29.49;35.98
11011;BME280;5558;42.702;23.178;2023-07-29T08:14:17;93614.06;;;29.75;34.87
11011;BME280;5558;42.702;23.178;2023-07-29T08:16:44;93609.81;;;28.55;35.56
11011;BME280;5558;42.702;23.178;2023-07-29T08:19:10;93608.88;;;28.37;35.92
11011;BME280;5558;42.702;23.178;2023-07-29T08:21:37;93614.84;;;28.06;34.68
11011;BME280;5558;42.702;23.178;2023-07-29T08:24:04;93615.50;;;28.36;35.95
11011;BME280;5558;42.702;23.178;2023-07-29T08:26:32;93608.25;;;28.10;37.24
11011;BME280;5558;42.702;23.178;2023-07-29T08:28:58;93602.47;;;28.59;35.26
11011;BME280;5558;42.702;23.178;2023-07-29T08:31:26;93611.56;;;28.33;35.17
11011;BME280;5558;42.702;23.178;2023-07-29T08:33:53;93609.34;;;28.46;37.02
11011;BME280;5558;42.702;23.178;2023-07-29T08:36:20;93604.91;;;28.71;35.36
11011;BME280;5558;42.702;23.178;2023-07-29T08:38:46;93598.19;;;29.19;35.15
11011;BME280;5558;42.702;23.178;2023-07-29T08:41:14;93609.91;;;29.20;33.77
11011;BME280;5558;42.702;23.178;2023-07-29T08:43:45;93609.84;;;29.13;32.92
11011;BME280;5558;42.702;23.178;2023-07-29T08:46:16;93607.94;;;29.17;33.77
11011;BME280;5558;42.702;23.178;2023-07-29T08:48:45;93599.88;;;29.45;33.37
11011;BME280;5558;42.702;23.178;2023-07-29T08:51:12;93597.69;;;29.71;34.54
11011;BME280;5558;42.702;23.178;2023-07-29T08:53:39;93596.25;;;29.20;32.75
11011;BME280;5558;42.702;23.178;2023-07-29T08:56:07;93598.16;;;29.09;32.81
11011;BME280;5558;42.702;23.178;2023-07-29T08:58:34;93600.38;;;28.96;31.92
11011;BME280;5558;42.702;23.178;2023-07-29T09:01:01;93595.47;;;29.16;31.76
11011;BME280;5558;42.702;23.178;2023-07-29T09:03:28;93594.75;;;29.26;33.12
11011;BME280;5558;42.702;23.178;2023-07-29T09:05:57;93584.22;;;29.31;33.04
11011;BME280;5558;42.702;23.178;2023-07-29T09:08:25;93584.69;;;29.47;32.56
11011;BME280;5558;42.702;23.178;2023-07-29T09:10:53;93580.28;;;29.15;31.23
11011;BME280;5558;42.702;23.178;2023-07-29T09:13:20;93574.16;;;28.74;31.99
11011;BME280;5558;42.702;23.178;2023-07-29T09:15:47;93579.63;;;28.27;31.49
11011;BME280;5558;42.702;23.178;2023-07-29T09:18:15;93569.78;;;28.59;31.15
11011;BME280;5558;42.702;23.178;2023-07-29T09:20:42;93570.81;;;28.44;30.93
11011;BME280;5558;42.702;23.178;2023-07-29T09:23:11;93581.97;;;28.28;31.55
11011;BME280;5558;42.702;23.178;2023-07-29T09:25:38;93577.03;;;28.41;30.00
11011;BME280;5558;42.702;23.178;2023-07-29T09:28:09;93576.47;;;28.65;30.35
11011;BME280;5558;42.702;23.178;2023-07-29T09:30:38;93582.88;;;28.97;30.07
11011;BME280;5558;42.702;23.178;2023-07-29T09:33:05;93575.06;;;28.96;30.50
11011;BME280;5558;42.702;23.178;2023-07-29T09:35:33;93570.31;;;28.82;30.96
11011;BME280;5558;42.702;23.178;2023-07-29T09:38:00;93547.94;;;28.05;31.18
11011;BME280;5558;42.702;23.178;2023-07-29T09:40:34;93559.25;;;28.54;31.13
11011;BME280;5558;42.702;23.178;2023-07-29T09:43:02;93563.66;;;28.72;31.45
11011;BME280;5558;42.702;23.178;2023-07-29T09:45:29;93559.44;;;28.86;30.40
11011;BME280;5558;42.702;23.178;2023-07-29T09:47:57;93532.66;;;28.98;30.29
11011;BME280;5558;42.702;23.178;2023-07-29T09:50:25;93556.28;;;29.55;30.43
11011;BME280;5558;42.702;23.178;2023-07-29T09:52:53;93557.16;;;29.87;31.37
11011;BME280;5558;42.702;23.178;2023-07-29T09:55:21;93563.66;;;29.44;29.68
11011;BME280;5558;42.702;23.178;2023-07-29T09:57:53;93537.09;;;29.27;29.92
11011;BME280;5558;42.702;23.178;2023-07-29T10:00:20;93547.78;;;29.71;29.30
11011;BME280;5558;42.702;23.178;2023-07-29T10:02:47;93548.59;;;30.00;30.37
11011;BME280;5558;42.702;23.178;2023-07-29T10:05:14;93547.72;;;29.60;29.49
11011;BME280;5558;42.702;23.178;2023-07-29T10:07:41;93550.66;;;29.13;29.17
11011;BME280;5558;42.702;23.178;2023-07-29T10:10:09;93540.91;;;29.09;30.62
11011;BME280;5558;42.702;23.178;2023-07-29T10:12:35;93540.59;;;29.24;29.58
11011;BME280;5558;42.702;23.178;2023-07-29T10:15:05;93534.34;;;29.24;30.26
11011;BME280;5558;42.702;23.178;2023-07-29T10:17:34;93538.31;;;29.44;28.73
11011;BME280;5558;42.702;23.178;2023-07-29T10:20:03;93520.81;;;29.55;29.55
11011;BME280;5558;42.702;23.178;2023-07-29T10:22:33;93527.06;;;29.59;30.33
11011;BME280;5558;42.702;23.178;2023-07-29T10:25:03;93524.19;;;29.17;30.22
11011;BME280;5558;42.702;23.178;2023-07-29T10:27:35;93529.78;;;28.73;30.74
11011;BME280;5558;42.702;23.178;2023-07-29T10:30:07;93527.94;;;28.92;28.92
11011;BME280;5558;42.702;23.178;2023-07-29T10:32:35;93510.34;;;28.82;29.87
11011;BME280;5558;42.702;23.178;2023-07-29T10:35:02;93512.16;;;29.29;29.41
11011;BME280;5558;42.702;23.178;2023-07-29T10:37:29;93508.13;;;28.98;28.87
11011;BME280;5558;42.702;23.178;2023-07-29T10:39:56;93507.34;;;29.01;28.40
11011;BME280;5558;42.702;23.178;2023-07-29T10:42:22;93504.41;;;29.45;28.34
11011;BME280;5558;42.702;23.178;2023-07-29T10:44:50;93511.81;;;29.55;28.21
11011;BME280;5558;42.702;23.178;2023-07-29T10:47:22;93503.22;;;29.39;29.43
11011;BME280;5558;42.702;23.178;2023-07-29T10:49:51;93494.72;;;29.58;28.68
11011;BME280;5558;42.702;23.178;2023-07-29T10:52:32;93499.00;;;29.62;29.03
11011;BME280;5558;42.702;23.178;2023-07-29T10:55:23;93502.84;;;29.40;28.89
11011;BME280;5558;42.702;23.178;2023-07-29T10:57:50;93493.13;;;29.60;28.66
11011;BME280;5558;42.702;23.178;2023-07-29T11:00:19;93495.88;;;29.64;28.34
11011;BME280;5558;42.702;23.178;2023-07-29T11:02:57;93487.75;;;29.74;26.45
11011;BME280;5558;42.702;23.178;2023-07-29T11:05:25;93487.75;;;30.10;26.90
11011;BME280;5558;42.702;23.178;2023-07-29T11:07:52;93481.13;;;30.35;28.13
11011;BME280;5558;42.702;23.178;2023-07-29T11:10:18;93477.59;;;30.52;27.85
11011;BME280;5558;42.702;23.178;2023-07-29T11:12:46;93479.91;;;30.64;26.78
11011;BME280;5558;42.702;23.178;2023-07-29T11:15:18;93463.09;;;30.76;27.64
11011;BME280;5558;42.702;23.178;2023-07-29T11:17:46;93479.81;;;31.07;27.55
11011;BME280;5558;42.702;23.178;2023-07-29T11:20:15;93478.53;;;31.29;27.33
11011;BME280;5558;42.702;23.178;2023-07-29T11:22:42;93485.53;;;31.44;26.75
11011;BME280;5558;42.702;23.178;2023-07-29T11:25:10;93473.59;;;30.95;26.42
11011;BME280;5558;42.702;23.178;2023-07-29T11:27:37;93475.59;;;30.84;27.60
11011;BME280;5558;42.702;23.178;2023-07-29T11:30:05;93475.63;;;30.56;26.91
11011;BME280;5558;42.702;23.178;2023-07-29T11:32:34;93472.94;;;30.28;26.94
11011;BME280;5558;42.702;23.178;2023-07-29T11:35:02;93469.44;;;30.24;28.87
11011;BME280;5558;42.702;23.178;2023-07-29T11:37:30;93467.06;;;30.40;26.84
11011;BME280;5558;42.702;23.178;2023-07-29T11:39:58;93465.53;;;30.25;25.78
11011;BME280;5558;42.702;23.178;2023-07-29T11:42:26;93461.22;;;30.38;25.95
11011;BME280;5558;42.702;23.178;2023-07-29T11:44:53;93459.69;;;30.34;26.71
11011;BME280;5558;42.702;23.178;2023-07-29T11:47:19;93462.72;;;30.60;24.94
11011;BME280;5558;42.702;23.178;2023-07-29T11:49:46;93462.34;;;30.62;25.85
11011;BME280;5558;42.702;23.178;2023-07-29T11:52:13;93454.56;;;30.50;25.48
11011;BME280;5558;42.702;23.178;2023-07-29T11:54:47;93457.25;;;30.64;27.13
11011;BME280;5558;42.702;23.178;2023-07-29T11:57:14;93456.84;;;30.83;24.78
11011;BME280;5558;42.702;23.178;2023-07-29T11:59:42;93425.63;;;30.66;25.33
11011;BME280;5558;42.702;23.178;2023-07-29T12:02:11;93447.94;;;30.51;24.69
11011;BME280;5558;42.702;23.178;2023-07-29T12:04:39;93454.59;;;30.36;24.32
11011;BME280;5558;42.702;23.178;2023-07-29T12:07:06;93449.84;;;30.68;24.69
11011;BME280;5558;42.702;23.178;2023-07-29T12:09:33;93444.69;;;30.94;24.25
11011;BME280;5558;42.702;23.178;2023-07-29T12:12:02;93444.97;;;31.14;24.22
11011;BME280;5558;42.702;23.178;2023-07-29T12:14:29;93423.22;;;30.96;24.63
11011;BME280;5558;42.702;23.178;2023-07-29T12:16:59;93440.34;;;31.00;25.19
11011;BME280;5558;42.702;23.178;2023-07-29T12:19:31;93436.81;;;31.07;24.79
11011;BME280;5558;42.702;23.178;2023-07-29T12:21:58;93438.03;;;30.99;24.07
11011;BME280;5558;42.702;23.178;2023-07-29T12:24:25;93435.00;;;30.62;24.99
11011;BME280;5558;42.702;23.178;2023-07-29T12:26:51;93433.03;;;30.73;24.54
11011;BME280;5558;42.702;23.178;2023-07-29T12:29:19;93432.94;;;31.01;24.95
11011;BME280;5558;42.702;23.178;2023-07-29T12:31:46;93435.00;;;30.65;24.62
11011;BME280;5558;42.702;23.178;2023-07-29T12:34:17;93428.84;;;30.33;24.89
11011;BME280;5558;42.702;23.178;2023-07-29T12:36:46;93431.06;;;30.70;24.88
11011;BME280;5558;42.702;23.178;2023-07-29T12:39:16;93430.19;;;31.08;25.64
11011;BME280;5558;42.702;23.178;2023-07-29T12:41:43;93427.06;;;31.06;26.44
11011;BME280;5558;42.702;23.178;2023-07-29T12:44:10;93427.41;;;31.15;26.20
11011;BME280;5558;42.702;23.178;2023-07-29T12:46:38;93434.66;;;31.50;24.99
11011;BME280;5558;42.702;23.178;2023-07-29T12:49:05;93435.19;;;31.82;25.85
11011;BME280;5558;42.702;23.178;2023-07-29T12:51:32;93422.25;;;31.93;24.06
11011;BME280;5558;42.702;23.178;2023-07-29T12:54:00;93427.13;;;32.15;25.34
11011;BME280;5558;42.702;23.178;2023-07-29T12:56:27;93429.91;;;32.53;24.94
11011;BME280;5558;42.702;23.178;2023-07-29T12:58:53;93428.41;;;32.48;23.57